createdAt,value
2022-09-26T00:00:04.116Z,72809.97
2022-09-26T00:00:49.335Z,72801.97
2022-09-26T00:01:24.865Z,72811.97
2022-09-26T00:01:59.952Z,72807.97
2022-09-26T00:02:32.324Z,72807.97
2022-09-26T00:03:04.751Z,72809.97
2022-09-26T00:03:37.540Z,72809.97
2022-09-26T00:04:23.340Z,72809.97
2022-09-26T00:04:56.142Z,72801.97
2022-09-26T00:05:28.451Z,72801.97
2022-09-26T00:06:04.558Z,72809.97
2022-09-26T00:06:37.067Z,72813.97
2022-09-26T00:07:09.374Z,72803.97
2022-09-26T00:07:44.278Z,72809.97
2022-09-26T00:08:16.583Z,72809.97
2022-09-26T00:08:50.291Z,72798.00
2022-09-26T00:09:30.391Z,72811.97
2022-09-26T00:10:02.738Z,72809.97
2022-09-26T00:10:35.282Z,72809.97
2022-09-26T00:11:12.335Z,72809.97
2022-09-26T00:11:45.255Z,72809.97
2022-09-26T00:12:17.617Z,72809.97
2022-09-26T00:12:53.395Z,72809.97
2022-09-26T00:13:26.084Z,72809.97
2022-09-26T00:14:00.177Z,72803.97
2022-09-26T00:14:35.179Z,72809.97
2022-09-26T00:15:08.719Z,72809.97
2022-09-26T00:15:41.007Z,72801.97
2022-09-26T00:16:15.520Z,72807.97
2022-09-26T00:16:50.942Z,72809.97
2022-09-26T00:17:23.362Z,72809.97
2022-09-26T00:17:55.647Z,72807.97
2022-09-26T00:18:28.096Z,72803.97
2022-09-26T00:19:03.045Z,72798.00
2022-09-26T00:19:35.334Z,72801.97
2022-09-26T00:20:08.718Z,72798.00
2022-09-26T00:20:43.685Z,72801.97
2022-09-26T00:21:16.263Z,72807.97
2022-09-26T00:21:48.942Z,72809.97
2022-09-26T00:22:23.863Z,72805.97
2022-09-26T00:22:56.150Z,72809.97
2022-09-26T00:23:28.498Z,72801.97
2022-09-26T00:24:04.859Z,72809.97
2022-09-26T00:24:39.814Z,72801.97
2022-09-26T00:25:12.166Z,72809.97
2022-09-26T00:25:49.810Z,72805.97
2022-09-26T00:26:23.253Z,72798.00
2022-09-26T00:26:55.549Z,72803.97
2022-09-26T00:27:30.478Z,72801.97
2022-09-26T00:28:02.793Z,72801.97
2022-09-26T00:28:35.396Z,72809.97
2022-09-26T00:29:12.442Z,72796.00
2022-09-26T00:29:44.835Z,72800.00
2022-09-26T00:30:17.284Z,72798.00
2022-09-26T00:30:52.257Z,72798.00
2022-09-26T00:31:27.018Z,72796.00
2022-09-26T00:31:59.380Z,72800.00
2022-09-26T00:32:37.142Z,72798.00
2022-09-26T00:33:09.433Z,72796.00
2022-09-26T00:33:42.003Z,72803.97
2022-09-26T00:34:18.811Z,72801.97
2022-09-26T00:34:51.159Z,72801.97
2022-09-26T00:35:23.566Z,72798.00
2022-09-26T00:35:56.129Z,72798.00
2022-09-26T00:36:38.151Z,72798.00
2022-09-26T00:37:11.086Z,72798.00
2022-09-26T00:37:45.991Z,72801.97
2022-09-26T00:38:18.554Z,72794.00
2022-09-26T00:38:51.200Z,72801.97
2022-09-26T00:39:26.133Z,72790.00
2022-09-26T00:40:01.785Z,72792.00
2022-09-26T00:40:34.152Z,72798.00
2022-09-26T00:41:07.453Z,72798.00
2022-09-26T00:41:42.544Z,72796.00
2022-09-26T00:42:15.761Z,72800.00
2022-09-26T00:42:48.148Z,72798.00
2022-09-26T00:43:29.868Z,72798.00
2022-09-26T00:44:05.080Z,72798.00
2022-09-26T00:44:46.574Z,72790.00
2022-09-26T00:45:19.312Z,72792.00
2022-09-26T00:45:54.333Z,72798.00
2022-09-26T00:46:30.701Z,72794.00
2022-09-26T00:47:03.455Z,72794.00
2022-09-26T00:47:43.556Z,72794.00
2022-09-26T00:48:15.867Z,72794.00
2022-09-26T00:48:50.649Z,72798.00
2022-09-26T00:49:29.177Z,72798.00
2022-09-26T00:50:04.177Z,72790.00
2022-09-26T00:50:42.143Z,72790.00
2022-09-26T00:51:15.003Z,72794.00
2022-09-26T00:51:51.384Z,72790.00
2022-09-26T00:52:29.607Z,72792.00
2022-09-26T00:53:04.559Z,72794.00
2022-09-26T00:53:43.306Z,72792.00
2022-09-26T00:54:18.290Z,72786.00
2022-09-26T00:54:52.246Z,72794.00
2022-09-26T00:55:35.263Z,72798.00
2022-09-26T00:56:11.524Z,72794.00
2022-09-26T00:56:45.587Z,72794.00
2022-09-26T00:57:20.061Z,72790.00
2022-09-26T00:57:58.767Z,72794.00
2022-09-26T00:58:33.207Z,72790.00
2022-09-26T00:59:12.744Z,72796.00
2022-09-26T00:59:51.636Z,72794.00
2022-09-26T01:00:24.142Z,72790.00
2022-09-26T01:00:58.450Z,72790.00
2022-09-26T01:01:33.646Z,72788.00
2022-09-26T01:02:06.423Z,72790.00
2022-09-26T01:02:39.683Z,72790.00
2022-09-26T01:03:15.643Z,72786.00
2022-09-26T01:03:49.565Z,72786.00
2022-09-26T01:04:23.060Z,72794.00
2022-09-26T01:04:58.617Z,72786.00
2022-09-26T01:05:33.059Z,72782.03
2022-09-26T01:06:08.317Z,72788.00
2022-09-26T01:06:41.171Z,72782.03
2022-09-26T01:07:17.765Z,72784.03
2022-09-26T01:07:53.337Z,72790.00
2022-09-26T01:08:28.682Z,72786.00
2022-09-26T01:09:07.801Z,72788.00
2022-09-26T01:09:42.914Z,72786.00
2022-09-26T01:10:15.978Z,72788.00
2022-09-26T01:10:51.049Z,72790.00
2022-09-26T01:11:26.146Z,72784.03
2022-09-26T01:12:00.334Z,72782.03
2022-09-26T01:12:33.247Z,72786.00
2022-09-26T01:13:08.857Z,72784.03
2022-09-26T01:13:41.984Z,72782.03
2022-09-26T01:14:14.902Z,72780.03
2022-09-26T01:14:47.866Z,72782.03
2022-09-26T01:15:22.967Z,72786.00
2022-09-26T01:15:55.254Z,72778.03
2022-09-26T01:16:27.753Z,72782.03
2022-09-26T01:17:02.877Z,72782.03
2022-09-26T01:17:36.123Z,72788.00
2022-09-26T01:18:10.950Z,72778.03
2022-09-26T01:18:46.528Z,72782.03
2022-09-26T01:19:24.119Z,72778.03
2022-09-26T01:20:23.015Z,72786.00
2022-09-26T01:21:00.434Z,72782.03
2022-09-26T01:21:46.111Z,72784.03
2022-09-26T01:22:41.609Z,72782.03
2022-09-26T01:23:40.662Z,72778.03
2022-09-26T01:24:33.299Z,72782.03
2022-09-26T01:25:19.566Z,72786.00
2022-09-26T01:26:16.253Z,72778.03
2022-09-26T01:27:13.143Z,72784.03
2022-09-26T01:27:57.911Z,72782.03
2022-09-26T01:28:42.547Z,72778.03
2022-09-26T01:29:39.191Z,72782.03
2022-09-26T01:30:15.585Z,72774.03
2022-09-26T01:31:00.677Z,72774.03
2022-09-26T01:31:37.831Z,72770.06
2022-09-26T01:32:35.648Z,72774.03
2022-09-26T01:33:32.517Z,72774.03
2022-09-26T01:34:10.689Z,72774.03
2022-09-26T01:34:50.971Z,72772.03
2022-09-26T01:35:36.969Z,72774.03
2022-09-26T01:36:40.794Z,72770.06
2022-09-26T01:37:23.095Z,72770.06
2022-09-26T01:38:15.952Z,72766.06
2022-09-26T01:39:00.945Z,72770.06
2022-09-26T01:39:44.876Z,72770.06
2022-09-26T01:40:22.383Z,72770.06
2022-09-26T01:41:08.332Z,72766.06
2022-09-26T01:41:49.995Z,72766.06
2022-09-26T01:42:26.455Z,72770.06
2022-09-26T01:43:08.674Z,72766.06
2022-09-26T01:43:45.919Z,72768.06
2022-09-26T01:44:29.657Z,72766.06
2022-09-26T01:45:10.351Z,72764.06
2022-09-26T01:45:52.309Z,72774.03
2022-09-26T01:46:33.882Z,72770.06
2022-09-26T01:47:12.306Z,72770.06
2022-09-26T01:47:47.281Z,72774.03
2022-09-26T01:48:24.684Z,72772.03
2022-09-26T01:49:01.671Z,72774.03
2022-09-26T01:49:37.663Z,72776.03
2022-09-26T01:50:17.517Z,72774.03
2022-09-26T01:50:51.914Z,72778.03
2022-09-26T01:51:28.594Z,72774.03
2022-09-26T01:52:08.021Z,72780.03
2022-09-26T01:52:45.131Z,72772.03
2022-09-26T01:53:20.413Z,72774.03
2022-09-26T01:54:02.082Z,72770.06
2022-09-26T01:54:37.060Z,72770.06
2022-09-26T01:55:12.175Z,72772.03
2022-09-26T01:55:51.592Z,72774.03
2022-09-26T01:56:25.803Z,72772.03
2022-09-26T01:56:58.879Z,72768.06
2022-09-26T01:57:38.518Z,72774.03
2022-09-26T01:58:14.159Z,72778.03
2022-09-26T01:58:50.408Z,72778.03
2022-09-26T01:59:29.029Z,72770.06
2022-09-26T02:00:06.028Z,72774.03
2022-09-26T02:00:50.683Z,72774.03
2022-09-26T02:01:29.996Z,72772.03
2022-09-26T02:02:05.304Z,72778.03
2022-09-26T02:02:41.721Z,72778.03
2022-09-26T02:03:21.214Z,72774.03
2022-09-26T02:03:55.986Z,72774.03
2022-09-26T02:04:30.122Z,72772.03
2022-09-26T02:05:09.088Z,72770.06
2022-09-26T02:05:46.878Z,72774.03
2022-09-26T02:06:25.615Z,72774.03
2022-09-26T02:07:00.282Z,72774.03
2022-09-26T02:07:37.587Z,72770.06
2022-09-26T02:08:15.778Z,72774.03
2022-09-26T02:08:54.659Z,72774.03
2022-09-26T02:09:30.042Z,72774.03
2022-09-26T02:10:08.567Z,72770.06
2022-09-26T02:10:44.024Z,72768.06
2022-09-26T02:11:21.637Z,72774.03
2022-09-26T02:11:56.790Z,72770.06
2022-09-26T02:12:33.029Z,72766.06
2022-09-26T02:13:08.968Z,72766.06
2022-09-26T02:13:48.908Z,72768.06
2022-09-26T02:14:25.543Z,72766.06
2022-09-26T02:15:00.761Z,72770.06
2022-09-26T02:15:38.031Z,72766.06
2022-09-26T02:16:17.963Z,72772.03
2022-09-26T02:16:51.749Z,72766.06
2022-09-26T02:17:31.518Z,72770.06
2022-09-26T02:18:11.459Z,72774.03
2022-09-26T02:18:46.655Z,72772.03
2022-09-26T02:19:25.533Z,72780.03
2022-09-26T02:20:00.793Z,72776.03
2022-09-26T02:20:38.154Z,72774.03
2022-09-26T02:21:13.415Z,72776.03
2022-09-26T02:21:46.070Z,72772.03
2022-09-26T02:22:21.149Z,72776.03
2022-09-26T02:22:53.475Z,72778.03
2022-09-26T02:23:25.808Z,72772.03
2022-09-26T02:24:01.794Z,72774.03
2022-09-26T02:24:36.879Z,72774.03
2022-09-26T02:25:10.420Z,72772.03
2022-09-26T02:25:46.080Z,72778.03
2022-09-26T02:26:19.942Z,72776.03
2022-09-26T02:26:55.519Z,72776.03
2022-09-26T02:27:28.392Z,72768.06
2022-09-26T02:28:01.247Z,72774.03
2022-09-26T02:28:36.378Z,72770.06
2022-09-26T02:29:10.066Z,72776.03
2022-09-26T02:29:44.200Z,72770.06
2022-09-26T02:30:20.243Z,72774.03
2022-09-26T02:30:53.428Z,72770.06
2022-09-26T02:31:32.207Z,72774.03
2022-09-26T02:32:15.571Z,72778.03
2022-09-26T02:32:48.484Z,72768.06
2022-09-26T02:33:21.257Z,72774.03
2022-09-26T02:33:56.700Z,72770.06
2022-09-26T02:34:32.035Z,72774.03
2022-09-26T02:35:34.903Z,72768.06
2022-09-26T02:36:13.579Z,72766.06
2022-09-26T02:36:46.574Z,72762.06
2022-09-26T02:37:21.253Z,72766.06
2022-09-26T02:37:53.644Z,72774.03
2022-09-26T02:38:31.622Z,72764.06
2022-09-26T02:39:26.941Z,72768.06
2022-09-26T02:40:20.876Z,72770.06
2022-09-26T02:41:00.347Z,72766.06
2022-09-26T02:41:39.371Z,72766.06
2022-09-26T02:42:18.942Z,72762.06
2022-09-26T02:42:58.767Z,72770.06
2022-09-26T02:43:42.547Z,72766.06
2022-09-26T02:44:30.311Z,72766.06
2022-09-26T02:45:17.074Z,72770.06
2022-09-26T02:45:54.439Z,72770.06
2022-09-26T02:47:04.818Z,72770.06
2022-09-26T02:48:08.304Z,72768.06
2022-09-26T02:48:57.602Z,72766.06
2022-09-26T02:49:51.001Z,72770.06
2022-09-26T02:50:43.030Z,72760.06
2022-09-26T02:51:26.183Z,72766.06
2022-09-26T02:52:12.211Z,72766.06
2022-09-26T02:52:53.811Z,72766.06
2022-09-26T02:54:01.391Z,72760.06
2022-09-26T02:54:50.042Z,72758.06
2022-09-26T02:55:26.936Z,72758.06
2022-09-26T02:56:04.991Z,72760.06
2022-09-26T02:56:46.218Z,72758.06
2022-09-26T02:57:26.120Z,72758.06
2022-09-26T02:58:06.582Z,72754.09
2022-09-26T02:58:48.128Z,72756.06
2022-09-26T02:59:22.963Z,72754.09
2022-09-26T03:00:02.111Z,72754.09
2022-09-26T03:01:00.814Z,72758.06
2022-09-26T03:01:40.316Z,72758.06
2022-09-26T03:02:16.014Z,72752.09
2022-09-26T03:03:06.067Z,72760.06
2022-09-26T03:03:47.892Z,72754.09
2022-09-26T03:04:27.882Z,72758.06
2022-09-26T03:05:06.308Z,72752.09
2022-09-26T03:05:41.780Z,72756.06
2022-09-26T03:06:17.941Z,72758.06
2022-09-26T03:06:56.687Z,72758.06
2022-09-26T03:07:32.772Z,72762.06
2022-09-26T03:08:08.841Z,72766.06
2022-09-26T03:08:46.263Z,72758.06
2022-09-26T03:09:19.998Z,72762.06
2022-09-26T03:09:53.467Z,72764.06
2022-09-26T03:10:30.234Z,72758.06
2022-09-26T03:11:06.531Z,72762.06
2022-09-26T03:11:39.919Z,72758.06
2022-09-26T03:12:16.879Z,72762.06
2022-09-26T03:12:49.963Z,72762.06
2022-09-26T03:13:22.902Z,72762.06
2022-09-26T03:13:59.505Z,72762.06
2022-09-26T03:14:34.260Z,72762.06
2022-09-26T03:15:08.566Z,72762.06
2022-09-26T03:15:45.314Z,72762.06
2022-09-26T03:16:18.543Z,72762.06
2022-09-26T03:16:51.934Z,72766.06
2022-09-26T03:17:29.208Z,72766.06
2022-09-26T03:18:07.455Z,72764.06
2022-09-26T03:18:44.379Z,72766.06
2022-09-26T03:19:27.043Z,72768.06
2022-09-26T03:20:03.889Z,72770.06
2022-09-26T03:20:36.970Z,72766.06
2022-09-26T03:21:09.687Z,72766.06
2022-09-26T03:21:46.042Z,72770.06
2022-09-26T03:22:18.916Z,72762.06
2022-09-26T03:22:51.468Z,72766.06
2022-09-26T03:23:25.290Z,72774.03
2022-09-26T03:24:02.146Z,72768.06
2022-09-26T03:24:36.410Z,72774.03
2022-09-26T03:25:15.093Z,72770.06
2022-09-26T03:26:02.480Z,72770.06
2022-09-26T03:26:36.870Z,72766.06
2022-09-26T03:27:09.951Z,72772.03
2022-09-26T03:27:45.726Z,72770.06
2022-09-26T03:28:18.432Z,72778.03
2022-09-26T03:28:53.925Z,72770.06
2022-09-26T03:29:26.424Z,72770.06
2022-09-26T03:29:59.668Z,72770.06
2022-09-26T03:30:36.669Z,72774.03
2022-09-26T03:31:31.636Z,72770.06
2022-09-26T03:32:16.590Z,72774.03
2022-09-26T03:32:49.521Z,72770.06
2022-09-26T03:33:24.479Z,72770.06
2022-09-26T03:34:01.591Z,72770.06
2022-09-26T03:34:35.437Z,72776.03
2022-09-26T03:35:14.648Z,72774.03
2022-09-26T03:35:46.979Z,72770.06
2022-09-26T03:36:24.418Z,72774.03
2022-09-26T03:37:01.036Z,72762.06
2022-09-26T03:37:35.194Z,72772.03
2022-09-26T03:38:14.127Z,72770.06
2022-09-26T03:38:51.808Z,72768.06
2022-09-26T03:39:43.009Z,72770.06
2022-09-26T03:40:24.937Z,72766.06
2022-09-26T03:41:19.755Z,72762.06
2022-09-26T03:42:18.176Z,72770.06
2022-09-26T03:42:54.887Z,72770.06
2022-09-26T03:43:28.956Z,72766.06
2022-09-26T03:44:03.246Z,72766.06
2022-09-26T03:45:02.536Z,72764.06
2022-09-26T03:45:38.053Z,72766.06
2022-09-26T03:46:24.497Z,72766.06
2022-09-26T03:46:59.600Z,72766.06
2022-09-26T03:47:32.834Z,72766.06
2022-09-26T03:48:08.346Z,72766.06
2022-09-26T03:48:46.461Z,72766.06
2022-09-26T03:49:21.381Z,72756.06
2022-09-26T03:49:56.727Z,72762.06
2022-09-26T03:50:33.878Z,72764.06
2022-09-26T03:51:07.701Z,72762.06
2022-09-26T03:51:44.387Z,72766.06
2022-09-26T03:52:19.795Z,72766.06
2022-09-26T03:52:54.278Z,72760.06
2022-09-26T03:53:29.790Z,72762.06
2022-09-26T03:54:02.192Z,72762.06
2022-09-26T03:54:35.619Z,72762.06
2022-09-26T03:55:11.697Z,72766.06
2022-09-26T03:55:45.081Z,72762.06
2022-09-26T03:56:27.188Z,72762.06
2022-09-26T03:57:04.855Z,72766.06
2022-09-26T03:57:41.027Z,72760.06
2022-09-26T03:58:24.027Z,72766.06
2022-09-26T03:58:59.168Z,72766.06
2022-09-26T03:59:31.620Z,72762.06
2022-09-26T04:00:07.737Z,72762.06
2022-09-26T04:01:10.601Z,72766.06
2022-09-26T04:01:46.475Z,72758.06
2022-09-26T04:02:22.789Z,72762.06
2022-09-26T04:03:10.527Z,72762.06
2022-09-26T04:03:50.818Z,72760.06
2022-09-26T04:04:23.855Z,72758.06
2022-09-26T04:04:58.863Z,72758.06
2022-09-26T04:05:31.256Z,72758.06
2022-09-26T04:06:04.330Z,72758.06
2022-09-26T04:06:39.459Z,72756.06
2022-09-26T04:07:11.802Z,72754.09
2022-09-26T04:07:44.841Z,72758.06
2022-09-26T04:08:19.805Z,72762.06
2022-09-26T04:08:53.406Z,72758.06
2022-09-26T04:09:26.464Z,72758.06
2022-09-26T04:10:05.107Z,72758.06
2022-09-26T04:10:39.732Z,72754.09
2022-09-26T04:11:15.171Z,72754.09
2022-09-26T04:11:50.511Z,72760.06
2022-09-26T04:12:22.849Z,72758.06
2022-09-26T04:12:55.479Z,72758.06
2022-09-26T04:14:23.257Z,72758.06
2022-09-26T04:15:03.749Z,72754.09
2022-09-26T04:15:38.532Z,72752.09
2022-09-26T04:16:16.983Z,72756.06
2022-09-26T04:16:59.757Z,72750.09
2022-09-26T04:17:36.662Z,72758.06
2022-09-26T04:18:15.376Z,72750.09
2022-09-26T04:18:58.355Z,72746.09
2022-09-26T04:19:32.280Z,72748.09
2022-09-26T04:20:05.779Z,72746.09
2022-09-26T04:20:43.198Z,72754.09
2022-09-26T04:21:16.834Z,72746.09
2022-09-26T04:21:49.143Z,72752.09
2022-09-26T04:22:27.556Z,72746.09
2022-09-26T04:23:01.585Z,72748.09
2022-09-26T04:23:38.262Z,72746.09
2022-09-26T04:24:17.346Z,72750.09
2022-09-26T04:24:49.636Z,72746.09
2022-09-26T04:25:28.053Z,72744.09
2022-09-26T04:26:04.365Z,72750.09
2022-09-26T04:26:36.706Z,72750.09
2022-09-26T04:27:11.696Z,72750.09
2022-09-26T04:27:44.206Z,72748.09
2022-09-26T04:28:17.139Z,72742.09
2022-09-26T04:28:55.483Z,72744.09
2022-09-26T04:29:33.464Z,72746.09
2022-09-26T04:30:21.739Z,72742.09
2022-09-26T04:31:01.085Z,72742.09
2022-09-26T04:31:37.038Z,72742.09
2022-09-26T04:32:20.398Z,72750.09
2022-09-26T04:33:21.471Z,72738.13
2022-09-26T04:34:16.404Z,72738.13
2022-09-26T04:34:54.019Z,72742.09
2022-09-26T04:35:27.482Z,72730.13
2022-09-26T04:36:00.372Z,72734.13
2022-09-26T04:36:36.001Z,72736.13
2022-09-26T04:37:09.169Z,72730.13
2022-09-26T04:37:44.084Z,72734.13
2022-09-26T04:38:19.127Z,72738.13
2022-09-26T04:38:55.015Z,72740.09
2022-09-26T04:39:29.978Z,72734.13
2022-09-26T04:40:07.199Z,72736.13
2022-09-26T04:40:45.756Z,72742.09
2022-09-26T04:41:19.623Z,72738.13
2022-09-26T04:42:00.872Z,72734.13
2022-09-26T04:42:34.181Z,72736.13
2022-09-26T04:43:07.230Z,72738.13
2022-09-26T04:43:42.926Z,72742.09
2022-09-26T04:44:18.028Z,72740.09
2022-09-26T04:44:51.167Z,72740.09
2022-09-26T04:45:28.988Z,72736.13
2022-09-26T04:46:02.027Z,72736.13
2022-09-26T04:46:34.970Z,72740.09
2022-09-26T04:47:14.208Z,72744.09
2022-09-26T04:48:07.808Z,72744.09
2022-09-26T04:48:52.055Z,72746.09
2022-09-26T04:49:31.283Z,72742.09
2022-09-26T04:50:07.182Z,72742.09
2022-09-26T04:50:39.784Z,72744.09
2022-09-26T04:51:18.393Z,72748.09
2022-09-26T04:52:02.768Z,72746.09
2022-09-26T04:52:38.267Z,72746.09
2022-09-26T04:53:11.239Z,72746.09
2022-09-26T04:54:12.166Z,72744.09
2022-09-26T04:54:49.816Z,72750.09
2022-09-26T04:55:25.914Z,72748.09
2022-09-26T04:56:06.863Z,72746.09
2022-09-26T04:56:39.779Z,72748.09
2022-09-26T04:57:19.895Z,72742.09
2022-09-26T04:57:54.450Z,72742.09
2022-09-26T04:58:35.647Z,72742.09
2022-09-26T04:59:08.032Z,72746.09
2022-09-26T05:00:07.297Z,72742.09
2022-09-26T05:00:46.794Z,72746.09
2022-09-26T05:01:25.760Z,72742.09
2022-09-26T05:02:29.942Z,72740.09
2022-09-26T05:03:03.035Z,72744.09
2022-09-26T05:03:37.226Z,72738.13
2022-09-26T05:04:13.560Z,72746.09
2022-09-26T05:04:51.310Z,72746.09
2022-09-26T05:05:24.467Z,72746.09
2022-09-26T05:05:59.453Z,72746.09
2022-09-26T05:06:31.909Z,72750.09
2022-09-26T05:07:09.131Z,72748.09
2022-09-26T05:07:42.883Z,72746.09
2022-09-26T05:08:15.848Z,72748.09
2022-09-26T05:08:50.987Z,72746.09
2022-09-26T05:09:31.757Z,72746.09
2022-09-26T05:10:15.691Z,72746.09
2022-09-26T05:10:57.086Z,72742.09
2022-09-26T05:11:33.124Z,72742.09
2022-09-26T05:12:05.683Z,72744.09
2022-09-26T05:12:39.407Z,72750.09
2022-09-26T05:13:14.326Z,72746.09
2022-09-26T05:13:52.446Z,72738.13
2022-09-26T05:14:28.449Z,72742.09
2022-09-26T05:15:01.943Z,72744.09
2022-09-26T05:15:39.901Z,72740.09
2022-09-26T05:16:16.297Z,72744.09
2022-09-26T05:16:50.174Z,72744.09
2022-09-26T05:17:24.462Z,72748.09
2022-09-26T05:18:04.154Z,72750.09
2022-09-26T05:18:37.187Z,72742.09
2022-09-26T05:19:09.587Z,72750.09
2022-09-26T05:19:53.375Z,72750.09
2022-09-26T05:20:31.611Z,72750.09
2022-09-26T05:21:11.327Z,72754.09
2022-09-26T05:21:43.647Z,72756.06
2022-09-26T05:22:16.017Z,72750.09
2022-09-26T05:22:51.091Z,72752.09
2022-09-26T05:23:44.540Z,72758.06
2022-09-26T05:24:33.474Z,72758.06
2022-09-26T05:25:21.563Z,72758.06
2022-09-26T05:26:08.838Z,72758.06
2022-09-26T05:26:43.839Z,72762.06
2022-09-26T05:27:19.358Z,72766.06
2022-09-26T05:27:53.544Z,72764.06
2022-09-26T05:28:27.643Z,72764.06
2022-09-26T05:29:16.827Z,72762.06
2022-09-26T05:29:56.544Z,72766.06
2022-09-26T05:30:32.608Z,72764.06
2022-09-26T05:31:05.328Z,72760.06
2022-09-26T05:31:38.193Z,72762.06
2022-09-26T05:32:14.000Z,72758.06
2022-09-26T05:32:50.238Z,72760.06
2022-09-26T05:33:23.362Z,72758.06
2022-09-26T05:34:00.699Z,72754.09
2022-09-26T05:34:33.107Z,72754.09
2022-09-26T05:35:09.284Z,72758.06
2022-09-26T05:35:54.266Z,72750.09
2022-09-26T05:36:27.212Z,72758.06
2022-09-26T05:37:02.165Z,72756.06
2022-09-26T05:37:34.540Z,72752.09
2022-09-26T05:38:07.343Z,72754.09
2022-09-26T05:38:46.832Z,72758.06
2022-09-26T05:39:37.849Z,72758.06
2022-09-26T05:40:29.062Z,72758.06
2022-09-26T05:41:01.747Z,72758.06
2022-09-26T05:41:34.283Z,72762.06
2022-09-26T05:42:07.541Z,72756.06
2022-09-26T05:42:43.055Z,72754.09
2022-09-26T05:43:15.838Z,72754.09
2022-09-26T05:43:51.686Z,72754.09
2022-09-26T05:44:24.018Z,72760.06
2022-09-26T05:44:56.383Z,72758.06
2022-09-26T05:45:31.485Z,72758.06
2022-09-26T05:46:11.105Z,72752.09
2022-09-26T05:46:50.486Z,72750.09
2022-09-26T05:47:26.565Z,72754.09
2022-09-26T05:48:01.496Z,72762.06
2022-09-26T05:48:35.413Z,72756.06
2022-09-26T05:49:12.019Z,72766.06
2022-09-26T05:49:44.459Z,72756.06
2022-09-26T05:50:25.249Z,72752.09
2022-09-26T05:51:00.235Z,72760.06
2022-09-26T05:51:33.627Z,72756.06
2022-09-26T05:52:06.254Z,72754.09
2022-09-26T05:52:41.715Z,72756.06
2022-09-26T05:53:21.938Z,72758.06
2022-09-26T05:53:57.742Z,72758.06
2022-09-26T05:54:32.238Z,72762.06
2022-09-26T05:55:08.085Z,72758.06
2022-09-26T05:56:02.016Z,72750.09
2022-09-26T05:56:44.383Z,72754.09
2022-09-26T05:57:39.276Z,72754.09
2022-09-26T05:58:11.616Z,72754.09
2022-09-26T05:59:05.263Z,72752.09
2022-09-26T05:59:40.090Z,72752.09
2022-09-26T06:00:32.405Z,72750.09
2022-09-26T06:01:09.480Z,72750.09
2022-09-26T06:01:42.088Z,72750.09
2022-09-26T06:02:28.428Z,72758.06
2022-09-26T06:03:24.766Z,72754.09
2022-09-26T06:04:10.427Z,72748.09
2022-09-26T06:05:00.083Z,72750.09
2022-09-26T06:06:01.838Z,72748.09
2022-09-26T06:06:39.616Z,72754.09
2022-09-26T06:07:17.113Z,72746.09
2022-09-26T06:07:49.758Z,72744.09
2022-09-26T06:08:42.010Z,72746.09
2022-09-26T06:09:35.137Z,72740.09
2022-09-26T06:10:48.463Z,72738.13
2022-09-26T06:11:22.727Z,72738.13
2022-09-26T06:11:55.399Z,72738.13
2022-09-26T06:12:30.354Z,72738.13
2022-09-26T06:13:03.051Z,72736.13
2022-09-26T06:13:41.436Z,72742.09
2022-09-26T06:14:13.743Z,72736.13
2022-09-26T06:14:46.923Z,72738.13
2022-09-26T06:15:23.204Z,72738.13
2022-09-26T06:15:57.470Z,72742.09
2022-09-26T06:16:34.105Z,72742.09
2022-09-26T06:17:06.524Z,72740.09
2022-09-26T06:17:38.854Z,72742.09
2022-09-26T06:18:13.851Z,72742.09
2022-09-26T06:18:47.312Z,72742.09
2022-09-26T06:19:22.946Z,72742.09
2022-09-26T06:19:58.492Z,72746.09
2022-09-26T06:20:32.460Z,72742.09
2022-09-26T06:21:09.583Z,72750.09
2022-09-26T06:21:46.219Z,72750.09
2022-09-26T06:22:22.021Z,72746.09
2022-09-26T06:22:55.322Z,72750.09
2022-09-26T06:23:30.299Z,72746.09
2022-09-26T06:24:03.259Z,72746.09
2022-09-26T06:24:39.704Z,72750.09
2022-09-26T06:25:16.279Z,72750.09
2022-09-26T06:25:48.589Z,72746.09
2022-09-26T06:26:25.579Z,72748.09
2022-09-26T06:26:58.738Z,72746.09
2022-09-26T06:27:32.809Z,72746.09
2022-09-26T06:28:07.778Z,72748.09
2022-09-26T06:28:42.046Z,72746.09
2022-09-26T06:29:14.683Z,72738.13
2022-09-26T06:29:50.619Z,72742.09
2022-09-26T06:30:23.701Z,72746.09
2022-09-26T06:31:00.395Z,72742.09
2022-09-26T06:31:55.399Z,72746.09
2022-09-26T06:32:30.459Z,72746.09
2022-09-26T06:33:33.530Z,72744.09
2022-09-26T06:34:28.989Z,72742.09
2022-09-26T06:35:13.111Z,72742.09
2022-09-26T06:36:03.752Z,72738.13
2022-09-26T06:36:44.002Z,72738.13
2022-09-26T06:37:18.935Z,72732.13
2022-09-26T06:37:51.843Z,72742.09
2022-09-26T06:38:24.186Z,72740.09
2022-09-26T06:38:59.122Z,72748.09
2022-09-26T06:39:35.904Z,72742.09
2022-09-26T06:40:11.703Z,72742.09
2022-09-26T06:40:47.459Z,72740.09
2022-09-26T06:41:19.972Z,72746.09
2022-09-26T06:41:53.011Z,72740.09
2022-09-26T06:42:43.573Z,72744.09
2022-09-26T06:43:26.078Z,72734.13
2022-09-26T06:44:09.805Z,72740.09
2022-09-26T06:45:10.472Z,72742.09
2022-09-26T06:46:05.486Z,72744.09
2022-09-26T06:46:46.492Z,72740.09
2022-09-26T06:47:22.285Z,72746.09
2022-09-26T06:47:59.002Z,72742.09
2022-09-26T06:48:59.960Z,72742.09
2022-09-26T06:49:53.427Z,72742.09
2022-09-26T06:50:34.623Z,72736.13
2022-09-26T06:51:13.910Z,72730.13
2022-09-26T06:51:49.729Z,72734.13
2022-09-26T06:52:23.299Z,72734.13
2022-09-26T06:53:04.596Z,72730.13
2022-09-26T06:53:46.101Z,72734.13
2022-09-26T06:54:24.862Z,72730.13
2022-09-26T06:54:57.440Z,72730.13
2022-09-26T06:55:29.823Z,72730.13
2022-09-26T06:56:06.196Z,72730.13
2022-09-26T06:56:38.508Z,72734.13
2022-09-26T06:57:15.069Z,72732.13
2022-09-26T06:57:50.331Z,72726.13
2022-09-26T06:58:25.045Z,72732.13
2022-09-26T06:59:12.361Z,72730.13
2022-09-26T06:59:53.751Z,72734.13
2022-09-26T07:00:35.834Z,72726.13
2022-09-26T07:01:34.695Z,72734.13
2022-09-26T07:02:38.673Z,72730.13
2022-09-26T07:03:31.775Z,72730.13
2022-09-26T07:04:32.220Z,72726.13
2022-09-26T07:05:32.226Z,72726.13
2022-09-26T07:06:07.674Z,72722.16
2022-09-26T07:06:40.518Z,72730.13
2022-09-26T07:07:15.474Z,72726.13
2022-09-26T07:07:50.703Z,72718.16
2022-09-26T07:08:57.775Z,72718.16
2022-09-26T07:09:36.587Z,72722.16
2022-09-26T07:10:20.038Z,72718.16
2022-09-26T07:11:28.187Z,72718.16
2022-09-26T07:12:15.758Z,72722.16
2022-09-26T07:12:53.220Z,72722.16
2022-09-26T07:13:26.550Z,72718.16
2022-09-26T07:14:02.524Z,72722.16
2022-09-26T07:14:36.137Z,72714.16
2022-09-26T07:15:19.835Z,72714.16
2022-09-26T07:15:53.048Z,72718.16
2022-09-26T07:16:34.139Z,72718.16
2022-09-26T07:17:30.478Z,72720.16
2022-09-26T07:18:20.595Z,72722.16
2022-09-26T07:19:09.459Z,72718.16
2022-09-26T07:19:57.904Z,72718.16
2022-09-26T07:21:07.873Z,72718.16
2022-09-26T07:22:06.454Z,72714.16
2022-09-26T07:23:03.386Z,72716.16
2022-09-26T07:23:35.865Z,72712.16
2022-09-26T07:24:08.827Z,72716.16
2022-09-26T07:24:49.028Z,72716.16
2022-09-26T07:25:21.883Z,72706.19
2022-09-26T07:25:56.874Z,72710.16
2022-09-26T07:26:29.371Z,72710.16
2022-09-26T07:27:03.058Z,72710.16
2022-09-26T07:27:38.014Z,72710.16
2022-09-26T07:28:10.404Z,72710.16
2022-09-26T07:28:56.831Z,72708.19
2022-09-26T07:29:31.227Z,72708.19
2022-09-26T07:30:04.000Z,72714.16
2022-09-26T07:30:40.372Z,72710.16
2022-09-26T07:31:19.533Z,72706.19